sensor_id;sensor_type;location;lat;lon;timestamp;P1;durP1;ratioP1;P2;durP2;ratioP2
55710;SDS011;41612;51.994;5.880;2023-07-02T11:15:10;7.05;;;3.55;;
55710;SDS011;41612;51.994;5.880;2023-07-02T11:17:47;8.80;;;3.63;;
55710;SDS011;41612;51.994;5.880;2023-07-02T11:20:13;6.32;;;3.50;;
55710;SDS011;41612;51.994;5.880;2023-07-02T11:22:40;6.40;;;3.58;;
55710;SDS011;41612;51.994;5.880;2023-07-02T11:25:13;7.35;;;4.15;;
55710;SDS011;41612;51.994;5.880;2023-07-02T11:27:42;4.95;;;2.83;;
55710;SDS011;41612;51.994;5.880;2023-07-02T11:30:09;6.10;;;3.60;;
55710;SDS011;41612;51.994;5.880;2023-07-02T11:32:49;7.57;;;3.67;;
55710;SDS011;41612;51.994;5.880;2023-07-02T11:35:17;8.50;;;4.07;;
55710;SDS011;41612;51.994;5.880;2023-07-02T11:37:46;6.85;;;3.08;;
55710;SDS011;41612;51.994;5.880;2023-07-02T11:40:14;8.07;;;3.20;;
55710;SDS011;41612;51.994;5.880;2023-07-02T11:42:45;9.25;;;4.03;;
55710;SDS011;41612;51.994;5.880;2023-07-02T11:45:11;7.85;;;2.95;;
55710;SDS011;41612;51.994;5.880;2023-07-02T11:47:40;5.88;;;3.28;;
55710;SDS011;41612;51.994;5.880;2023-07-02T11:50:06;8.70;;;3.92;;
55710;SDS011;41612;51.994;5.880;2023-07-02T11:52:33;6.18;;;3.20;;
55710;SDS011;41612;51.994;5.880;2023-07-02T11:55:01;5.40;;;3.15;;
55710;SDS011;41612;51.994;5.880;2023-07-02T11:57:27;5.47;;;3.00;;
55710;SDS011;41612;51.994;5.880;2023-07-02T11:59:53;4.10;;;2.72;;
55710;SDS011;41612;51.994;5.880;2023-07-02T12:02:19;5.07;;;2.92;;
55710;SDS011;41612;51.994;5.880;2023-07-02T12:04:44;7.80;;;3.67;;
55710;SDS011;41612;51.994;5.880;2023-07-02T12:07:10;6.45;;;3.13;;
55710;SDS011;41612;51.994;5.880;2023-07-02T12:09:38;7.70;;;3.25;;
55710;SDS011;41612;51.994;5.880;2023-07-02T12:12:04;5.40;;;2.90;;
55710;SDS011;41612;51.994;5.880;2023-07-02T12:14:35;7.78;;;3.95;;
55710;SDS011;41612;51.994;5.880;2023-07-02T12:17:08;5.93;;;3.22;;
55710;SDS011;41612;51.994;5.880;2023-07-02T12:19:38;5.38;;;3.22;;
55710;SDS011;41612;51.994;5.880;2023-07-02T12:22:05;8.18;;;3.10;;
55710;SDS011;41612;51.994;5.880;2023-07-02T12:24:31;5.70;;;3.17;;
55710;SDS011;41612;51.994;5.880;2023-07-02T12:27:00;4.93;;;3.30;;
55710;SDS011;41612;51.994;5.880;2023-07-02T12:29:28;5.57;;;3.10;;
55710;SDS011;41612;51.994;5.880;2023-07-02T12:31:54;8.38;;;3.47;;
55710;SDS011;41612;51.994;5.880;2023-07-02T12:34:20;7.03;;;3.63;;
55710;SDS011;41612;51.994;5.880;2023-07-02T12:36:46;5.97;;;3.25;;
55710;SDS011;41612;51.994;5.880;2023-07-02T12:39:12;5.47;;;3.42;;
55710;SDS011;41612;51.994;5.880;2023-07-02T12:41:37;8.70;;;3.72;;
55710;SDS011;41612;51.994;5.880;2023-07-02T12:44:03;8.70;;;3.95;;
55710;SDS011;41612;51.994;5.880;2023-07-02T12:46:29;8.13;;;3.00;;
55710;SDS011;41612;51.994;5.880;2023-07-02T12:48:58;4.50;;;3.08;;
55710;SDS011;41612;51.994;5.880;2023-07-02T12:51:24;5.68;;;2.92;;
55710;SDS011;41612;51.994;5.880;2023-07-02T12:53:49;7.00;;;3.92;;
55710;SDS011;41612;51.994;5.880;2023-07-02T12:56:15;6.97;;;3.70;;
55710;SDS011;41612;51.994;5.880;2023-07-02T12:58:41;5.28;;;2.80;;
55710;SDS011;41612;51.994;5.880;2023-07-02T13:01:07;6.80;;;3.40;;
55710;SDS011;41612;51.994;5.880;2023-07-02T13:03:33;5.07;;;2.95;;
55710;SDS011;41612;51.994;5.880;2023-07-02T13:05:59;5.38;;;3.08;;
55710;SDS011;41612;51.994;5.880;2023-07-02T13:08:25;11.02;;;3.38;;
55710;SDS011;41612;51.994;5.880;2023-07-02T13:10:51;7.32;;;3.55;;
55710;SDS011;41612;51.994;5.880;2023-07-02T13:13:16;5.72;;;3.00;;
55710;SDS011;41612;51.994;5.880;2023-07-02T13:15:42;5.97;;;2.97;;
55710;SDS011;41612;51.994;5.880;2023-07-02T13:18:08;4.78;;;2.70;;
55710;SDS011;41612;51.994;5.880;2023-07-02T13:20:33;4.55;;;2.35;;
55710;SDS011;41612;51.994;5.880;2023-07-02T13:22:59;7.72;;;3.33;;
55710;SDS011;41612;51.994;5.880;2023-07-02T13:25:25;8.15;;;2.83;;
55710;SDS011;41612;51.994;5.880;2023-07-02T13:27:51;7.80;;;3.58;;
55710;SDS011;41612;51.994;5.880;2023-07-02T13:30:17;5.32;;;2.90;;
55710;SDS011;41612;51.994;5.880;2023-07-02T13:32:42;6.47;;;3.20;;
55710;SDS011;41612;51.994;5.880;2023-07-02T13:35:08;6.70;;;3.25;;
55710;SDS011;41612;51.994;5.880;2023-07-02T13:37:34;8.98;;;3.40;;
55710;SDS011;41612;51.994;5.880;2023-07-02T13:39:59;11.15;;;3.53;;
55710;SDS011;41612;51.994;5.880;2023-07-02T13:42:25;5.88;;;3.47;;
55710;SDS011;41612;51.994;5.880;2023-07-02T13:44:51;6.55;;;2.88;;
55710;SDS011;41612;51.994;5.880;2023-07-02T13:47:17;7.18;;;3.80;;
55710;SDS011;41612;51.994;5.880;2023-07-02T13:49:42;4.72;;;3.08;;
55710;SDS011;41612;51.994;5.880;2023-07-02T13:52:09;9.05;;;3.03;;
55710;SDS011;41612;51.994;5.880;2023-07-02T13:54:37;4.38;;;2.53;;
55710;SDS011;41612;51.994;5.880;2023-07-02T13:57:03;8.18;;;3.50;;
55710;SDS011;41612;51.994;5.880;2023-07-02T13:59:29;6.40;;;2.97;;
55710;SDS011;41612;51.994;5.880;2023-07-02T14:01:54;6.68;;;3.38;;
55710;SDS011;41612;51.994;5.880;2023-07-02T14:04:20;11.75;;;3.63;;
55710;SDS011;41612;51.994;5.880;2023-07-02T14:06:53;6.55;;;3.80;;
55710;SDS011;41612;51.994;5.880;2023-07-02T14:09:19;8.50;;;3.97;;
55710;SDS011;41612;51.994;5.880;2023-07-02T14:11:45;6.95;;;3.15;;
55710;SDS011;41612;51.994;5.880;2023-07-02T14:14:11;8.20;;;3.58;;
55710;SDS011;41612;51.994;5.880;2023-07-02T14:16:37;3.72;;;2.38;;
55710;SDS011;41612;51.994;5.880;2023-07-02T14:19:02;5.75;;;2.83;;
55710;SDS011;41612;51.994;5.880;2023-07-02T14:21:28;8.48;;;3.28;;
55710;SDS011;41612;51.994;5.880;2023-07-02T14:23:54;6.45;;;2.65;;
55710;SDS011;41612;51.994;5.880;2023-07-02T14:26:20;4.97;;;2.95;;
55710;SDS011;41612;51.994;5.880;2023-07-02T14:28:45;5.65;;;2.90;;
55710;SDS011;41612;51.994;5.880;2023-07-02T14:31:11;5.00;;;2.95;;
55710;SDS011;41612;51.994;5.880;2023-07-02T14:33:37;8.35;;;3.55;;
55710;SDS011;41612;51.994;5.880;2023-07-02T14:36:03;7.72;;;3.35;;
55710;SDS011;41612;51.994;5.880;2023-07-02T14:38:30;5.47;;;2.90;;
55710;SDS011;41612;51.994;5.880;2023-07-02T14:40:56;6.10;;;3.67;;
55710;SDS011;41612;51.994;5.880;2023-07-02T14:43:22;8.10;;;3.65;;
55710;SDS011;41612;51.994;5.880;2023-07-02T14:45:53;5.57;;;3.05;;
55710;SDS011;41612;51.994;5.880;2023-07-02T14:48:20;7.78;;;3.60;;
55710;SDS011;41612;51.994;5.880;2023-07-02T14:50:50;5.97;;;3.10;;
55710;SDS011;41612;51.994;5.880;2023-07-02T14:53:18;12.35;;;3.80;;
55710;SDS011;41612;51.994;5.880;2023-07-02T14:55:45;6.45;;;3.85;;
55710;SDS011;41612;51.994;5.880;2023-07-02T14:58:12;5.43;;;3.30;;
55710;SDS011;41612;51.994;5.880;2023-07-02T15:00:49;6.95;;;3.83;;
55710;SDS011;41612;51.994;5.880;2023-07-02T15:03:16;8.35;;;4.40;;
55710;SDS011;41612;51.994;5.880;2023-07-02T15:05:43;5.15;;;3.10;;
55710;SDS011;41612;51.994;5.880;2023-07-02T15:08:10;7.30;;;3.00;;
55710;SDS011;41612;51.994;5.880;2023-07-02T15:10:38;6.97;;;3.40;;
55710;SDS011;41612;51.994;5.880;2023-07-02T15:13:08;6.35;;;3.72;;
55710;SDS011;41612;51.994;5.880;2023-07-02T15:15:34;7.15;;;4.07;;
55710;SDS011;41612;51.994;5.880;2023-07-02T15:18:02;4.88;;;3.33;;
55710;SDS011;41612;51.994;5.880;2023-07-02T15:20:28;7.20;;;3.78;;
55710;SDS011;41612;51.994;5.880;2023-07-02T15:22:54;7.57;;;3.65;;
55710;SDS011;41612;51.994;5.880;2023-07-02T15:25:20;6.07;;;2.70;;
55710;SDS011;41612;51.994;5.880;2023-07-02T15:27:47;7.05;;;3.67;;
55710;SDS011;41612;51.994;5.880;2023-07-02T15:30:15;5.53;;;3.38;;
55710;SDS011;41612;51.994;5.880;2023-07-02T15:32:41;4.93;;;2.88;;
55710;SDS011;41612;51.994;5.880;2023-07-02T15:35:07;5.00;;;2.85;;
55710;SDS011;41612;51.994;5.880;2023-07-02T15:37:34;5.53;;;2.97;;
55710;SDS011;41612;51.994;5.880;2023-07-02T15:40:00;7.78;;;3.95;;
55710;SDS011;41612;51.994;5.880;2023-07-02T15:42:25;7.90;;;3.78;;
55710;SDS011;41612;51.994;5.880;2023-07-02T15:44:55;7.18;;;3.60;;
55710;SDS011;41612;51.994;5.880;2023-07-02T15:47:22;4.70;;;2.80;;
55710;SDS011;41612;51.994;5.880;2023-07-02T15:49:48;7.40;;;3.33;;
55710;SDS011;41612;51.994;5.880;2023-07-02T15:52:15;4.80;;;3.15;;
55710;SDS011;41612;51.994;5.880;2023-07-02T15:54:41;8.32;;;3.72;;
55710;SDS011;41612;51.994;5.880;2023-07-02T15:57:07;4.60;;;2.80;;
55710;SDS011;41612;51.994;5.880;2023-07-02T15:59:32;9.70;;;4.25;;
55710;SDS011;41612;51.994;5.880;2023-07-02T16:01:58;4.07;;;2.78;;
55710;SDS011;41612;51.994;5.880;2023-07-02T16:04:24;10.15;;;3.75;;
55710;SDS011;41612;51.994;5.880;2023-07-02T16:06:53;6.97;;;3.67;;
55710;SDS011;41612;51.994;5.880;2023-07-02T16:09:20;5.30;;;2.85;;
55710;SDS011;41612;51.994;5.880;2023-07-02T16:11:46;6.05;;;3.70;;
55710;SDS011;41612;51.994;5.880;2023-07-02T16:14:14;11.82;;;4.35;;
55710;SDS011;41612;51.994;5.880;2023-07-02T16:16:44;5.53;;;3.15;;
55710;SDS011;41612;51.994;5.880;2023-07-02T16:19:12;6.40;;;3.50;;
55710;SDS011;41612;51.994;5.880;2023-07-02T16:21:39;5.85;;;3.30;;
55710;SDS011;41612;51.994;5.880;2023-07-02T16:24:07;8.35;;;3.30;;
55710;SDS011;41612;51.994;5.880;2023-07-02T16:26:45;5.25;;;3.03;;
55710;SDS011;41612;51.994;5.880;2023-07-02T16:29:11;6.70;;;4.00;;
55710;SDS011;41612;51.994;5.880;2023-07-02T16:31:37;6.43;;;3.78;;
55710;SDS011;41612;51.994;5.880;2023-07-02T16:34:03;6.43;;;3.75;;
55710;SDS011;41612;51.994;5.880;2023-07-02T16:36:30;7.18;;;3.60;;
55710;SDS011;41612;51.994;5.880;2023-07-02T16:38:55;8.93;;;4.40;;
55710;SDS011;41612;51.994;5.880;2023-07-02T16:41:21;7.60;;;3.70;;
55710;SDS011;41612;51.994;5.880;2023-07-02T16:43:47;11.82;;;4.72;;
55710;SDS011;41612;51.994;5.880;2023-07-02T16:46:14;9.73;;;4.10;;
55710;SDS011;41612;51.994;5.880;2023-07-02T16:48:40;11.35;;;4.43;;
55710;SDS011;41612;51.994;5.880;2023-07-02T16:51:06;10.82;;;3.65;;
55710;SDS011;41612;51.994;5.880;2023-07-02T16:53:32;12.43;;;4.65;;
55710;SDS011;41612;51.994;5.880;2023-07-02T16:55:59;10.10;;;4.13;;
55710;SDS011;41612;51.994;5.880;2023-07-02T16:58:26;11.20;;;4.55;;
55710;SDS011;41612;51.994;5.880;2023-07-02T17:01:01;9.60;;;4.15;;
55710;SDS011;41612;51.994;5.880;2023-07-02T17:03:28;7.80;;;3.80;;
55710;SDS011;41612;51.994;5.880;2023-07-02T17:05:54;8.48;;;3.60;;
55710;SDS011;41612;51.994;5.880;2023-07-02T17:08:23;7.32;;;3.58;;
55710;SDS011;41612;51.994;5.880;2023-07-02T17:10:49;8.57;;;4.15;;
55710;SDS011;41612;51.994;5.880;2023-07-02T17:13:15;7.47;;;3.60;;
55710;SDS011;41612;51.994;5.880;2023-07-02T17:15:41;7.30;;;4.30;;
55710;SDS011;41612;51.994;5.880;2023-07-02T17:18:06;7.47;;;4.20;;
55710;SDS011;41612;51.994;5.880;2023-07-02T17:20:32;7.93;;;4.03;;
55710;SDS011;41612;51.994;5.880;2023-07-02T17:23:00;12.32;;;4.65;;
55710;SDS011;41612;51.994;5.880;2023-07-02T17:25:26;12.18;;;5.43;;
55710;SDS011;41612;51.994;5.880;2023-07-02T17:27:51;8.57;;;4.93;;
55710;SDS011;41612;51.994;5.880;2023-07-02T17:30:17;9.35;;;5.25;;
55710;SDS011;41612;51.994;5.880;2023-07-02T17:32:43;11.13;;;3.72;;
55710;SDS011;41612;51.994;5.880;2023-07-02T17:35:09;9.48;;;5.03;;
55710;SDS011;41612;51.994;5.880;2023-07-02T17:37:44;8.88;;;4.25;;
55710;SDS011;41612;51.994;5.880;2023-07-02T17:40:13;7.95;;;3.67;;
55710;SDS011;41612;51.994;5.880;2023-07-02T17:42:39;9.10;;;4.57;;
55710;SDS011;41612;51.994;5.880;2023-07-02T17:45:05;15.07;;;5.05;;
55710;SDS011;41612;51.994;5.880;2023-07-02T21:11:26;12.68;;;5.13;;
55710;SDS011;41612;51.994;5.880;2023-07-02T21:13:52;13.70;;;5.93;;
55710;SDS011;41612;51.994;5.880;2023-07-02T21:16:18;13.68;;;5.15;;
55710;SDS011;41612;51.994;5.880;2023-07-02T21:18:44;11.98;;;4.13;;
55710;SDS011;41612;51.994;5.880;2023-07-02T21:21:09;11.95;;;4.55;;
55710;SDS011;41612;51.994;5.880;2023-07-02T21:23:35;13.77;;;5.90;;
55710;SDS011;41612;51.994;5.880;2023-07-02T21:26:01;10.68;;;4.28;;
55710;SDS011;41612;51.994;5.880;2023-07-02T21:28:30;8.48;;;3.75;;
55710;SDS011;41612;51.994;5.880;2023-07-02T21:30:56;12.88;;;4.18;;
55710;SDS011;41612;51.994;5.880;2023-07-02T21:33:22;10.05;;;5.00;;
55710;SDS011;41612;51.994;5.880;2023-07-02T21:35:48;15.70;;;5.30;;
55710;SDS011;41612;51.994;5.880;2023-07-02T21:38:14;8.77;;;4.13;;
55710;SDS011;41612;51.994;5.880;2023-07-02T21:40:40;9.00;;;3.75;;
55710;SDS011;41612;51.994;5.880;2023-07-02T21:43:07;10.18;;;4.32;;
55710;SDS011;41612;51.994;5.880;2023-07-02T21:45:33;12.73;;;4.38;;
55710;SDS011;41612;51.994;5.880;2023-07-02T21:47:59;14.98;;;4.68;;
55710;SDS011;41612;51.994;5.880;2023-07-02T21:50:25;16.63;;;5.00;;
55710;SDS011;41612;51.994;5.880;2023-07-02T21:52:50;13.18;;;4.47;;
55710;SDS011;41612;51.994;5.880;2023-07-02T21:55:16;9.68;;;4.18;;
55710;SDS011;41612;51.994;5.880;2023-07-02T21:57:42;8.77;;;3.63;;
55710;SDS011;41612;51.994;5.880;2023-07-02T22:00:09;14.15;;;4.50;;
55710;SDS011;41612;51.994;5.880;2023-07-02T22:02:43;13.07;;;4.60;;
55710;SDS011;41612;51.994;5.880;2023-07-02T22:05:09;17.27;;;4.97;;
55710;SDS011;41612;51.994;5.880;2023-07-02T22:07:35;12.35;;;4.70;;
55710;SDS011;41612;51.994;5.880;2023-07-02T22:10:01;12.60;;;4.80;;
55710;SDS011;41612;51.994;5.880;2023-07-02T22:12:29;14.15;;;4.07;;
55710;SDS011;41612;51.994;5.880;2023-07-02T22:14:55;10.73;;;4.40;;
55710;SDS011;41612;51.994;5.880;2023-07-02T22:17:21;13.52;;;5.10;;
55710;SDS011;41612;51.994;5.880;2023-07-02T22:19:47;13.55;;;4.80;;
55710;SDS011;41612;51.994;5.880;2023-07-02T22:22:13;14.82;;;4.72;;
55710;SDS011;41612;51.994;5.880;2023-07-02T22:24:39;12.52;;;4.88;;
55710;SDS011;41612;51.994;5.880;2023-07-02T22:27:05;12.35;;;4.05;;
55710;SDS011;41612;51.994;5.880;2023-07-02T22:29:31;16.25;;;5.15;;
55710;SDS011;41612;51.994;5.880;2023-07-02T22:31:57;13.20;;;4.88;;
55710;SDS011;41612;51.994;5.880;2023-07-02T22:34:23;9.20;;;3.25;;
55710;SDS011;41612;51.994;5.880;2023-07-02T22:36:49;12.38;;;4.38;;
55710;SDS011;41612;51.994;5.880;2023-07-02T22:39:15;10.95;;;4.55;;
55710;SDS011;41612;51.994;5.880;2023-07-02T22:41:41;13.55;;;4.85;;
55710;SDS011;41612;51.994;5.880;2023-07-02T22:44:12;13.85;;;4.25;;
55710;SDS011;41612;51.994;5.880;2023-07-02T22:46:38;11.98;;;4.00;;
55710;SDS011;41612;51.994;5.880;2023-07-02T22:49:04;11.30;;;4.28;;
55710;SDS011;41612;51.994;5.880;2023-07-02T22:51:31;12.43;;;3.95;;
55710;SDS011;41612;51.994;5.880;2023-07-02T22:53:57;16.83;;;5.40;;
55710;SDS011;41612;51.994;5.880;2023-07-02T22:56:23;16.75;;;5.30;;
55710;SDS011;41612;51.994;5.880;2023-07-02T22:58:49;12.60;;;4.47;;
55710;SDS011;41612;51.994;5.880;2023-07-02T23:01:15;12.95;;;4.78;;
55710;SDS011;41612;51.994;5.880;2023-07-02T23:03:41;13.40;;;5.00;;
55710;SDS011;41612;51.994;5.880;2023-07-02T23:06:07;22.85;;;6.22;;
55710;SDS011;41612;51.994;5.880;2023-07-02T23:08:33;13.45;;;4.72;;
55710;SDS011;41612;51.994;5.880;2023-07-02T23:10:59;22.27;;;4.70;;
55710;SDS011;41612;51.994;5.880;2023-07-02T23:13:24;11.60;;;4.88;;
55710;SDS011;41612;51.994;5.880;2023-07-02T23:15:50;20.17;;;5.32;;
55710;SDS011;41612;51.994;5.880;2023-07-02T23:18:16;15.75;;;4.28;;
55710;SDS011;41612;51.994;5.880;2023-07-02T23:20:42;16.98;;;5.05;;
55710;SDS011;41612;51.994;5.880;2023-07-02T23:23:09;15.18;;;4.78;;
55710;SDS011;41612;51.994;5.880;2023-07-02T23:25:34;13.95;;;4.97;;
55710;SDS011;41612;51.994;5.880;2023-07-02T23:28:02;17.90;;;5.22;;
55710;SDS011;41612;51.994;5.880;2023-07-02T23:30:33;14.00;;;3.97;;
55710;SDS011;41612;51.994;5.880;2023-07-02T23:33:01;17.17;;;3.78;;
55710;SDS011;41612;51.994;5.880;2023-07-02T23:35:33;18.80;;;4.85;;
55710;SDS011;41612;51.994;5.880;2023-07-02T23:37:59;17.13;;;4.72;;
55710;SDS011;41612;51.994;5.880;2023-07-02T23:40:27;13.88;;;4.25;;
55710;SDS011;41612;51.994;5.880;2023-07-02T23:42:53;16.10;;;4.20;;
55710;SDS011;41612;51.994;5.880;2023-07-02T23:45:19;14.00;;;4.50;;
55710;SDS011;41612;51.994;5.880;2023-07-02T23:47:46;15.10;;;4.88;;
55710;SDS011;41612;51.994;5.880;2023-07-02T23:50:13;15.90;;;4.55;;
55710;SDS011;41612;51.994;5.880;2023-07-02T23:52:42;15.23;;;4.65;;
55710;SDS011;41612;51.994;5.880;2023-07-02T23:55:14;13.38;;;4.18;;
55710;SDS011;41612;51.994;5.880;2023-07-02T23:57:41;13.60;;;3.85;;
